Time;durP1;ratioP1;P1;durP2;ratioP2;P2;SDS_P1;SDS_P2;PMS_P1;PMS_P2;Temp;Humidity;BMP_temperature;BMP_pressure;BME280_temperature;BME280_humidity;BME280_pressure;Samples;Min_cycle;Max_cycle;Signal;HPM_P1;HPM_P2
2021/12/14 00:00:04;;;;;;;12.90;7.43;;;;;;;3.21;100.00;99773.13;5050417;28;20203;-54
2021/12/14 00:02:31;;;;;;;13.77;8.40;;;;;;;3.22;100.00;99775.66;5051471;28;20716;-54
2021/12/14 00:05:00;;;;;;;12.90;8.33;;;;;;;3.23;100.00;99769.59;5050848;28;20676;-53
2021/12/14 00:07:27;;;;;;;12.63;8.33;;;;;;;3.24;100.00;99766.09;5051751;28;20195;-54
2021/12/14 00:10:10;;;;;;;21.07;8.47;;;;;;;3.28;100.00;99765.94;5057294;28;20671;-55
2021/12/14 00:12:41;;;;;;;11.07;7.30;;;;;;;3.30;100.00;99766.69;5070537;28;20190;-54
2021/12/14 00:15:14;;;;;;;14.87;7.60;;;;;;;3.31;100.00;99776.94;5067016;28;20583;-55
2021/12/14 00:17:45;;;;;;;13.47;8.30;;;;;;;3.32;100.00;99783.75;5045656;28;20200;-53
2021/12/14 00:20:19;;;;;;;14.00;8.60;;;;;;;3.38;100.00;99787.81;5030280;28;20208;-54
2021/12/14 00:25:33;;;;;;;13.37;8.30;;;;;;;3.44;100.00;99794.41;5037533;28;20290;-55
2021/12/14 00:28:03;;;;;;;15.23;8.57;;;;;;;3.47;100.00;99797.69;5050303;28;20195;-55
2021/12/14 00:30:33;;;;;;;14.43;8.60;;;;;;;3.50;100.00;99789.78;5050541;28;20219;-54
2021/12/14 00:33:01;;;;;;;13.33;8.23;;;;;;;3.54;100.00;99798.19;5036647;28;20187;-55
2021/12/14 00:35:27;;;;;;;14.00;9.30;;;;;;;3.56;100.00;99795.53;5050010;28;20191;-55
2021/12/14 00:37:58;;;;;;;16.33;9.17;;;;;;;3.59;100.00;99796.22;5047148;28;20193;-56
2021/12/14 00:40:30;;;;;;;13.97;8.97;;;;;;;3.62;100.00;99795.25;5044841;28;20215;-55
2021/12/14 00:42:59;;;;;;;12.63;8.23;;;;;;;3.65;100.00;99795.09;5051671;28;20199;-56
2021/12/14 00:45:28;;;;;;;13.03;8.63;;;;;;;3.65;100.00;99790.75;5041967;28;20534;-54
2021/12/14 00:47:57;;;;;;;15.43;9.37;;;;;;;3.69;100.00;99792.25;5030096;28;20212;-56
2021/12/14 00:50:26;;;;;;;16.13;8.83;;;;;;;3.78;100.00;99800.44;5030869;28;20217;-55
2021/12/14 00:52:53;;;;;;;16.77;10.77;;;;;;;3.77;100.00;99801.38;5031642;28;20188;-56
2021/12/14 00:55:25;;;;;;;15.67;10.83;;;;;;;3.77;100.00;99804.75;5031485;28;20195;-55
2021/12/14 00:57:52;;;;;;;12.53;8.13;;;;;;;3.75;100.00;99795.44;5031687;28;20546;-55
2021/12/14 01:00:25;;;;;;;14.60;8.23;;;;;;;3.69;100.00;99797.41;5030462;28;20216;-52
2021/12/14 01:02:52;;;;;;;16.27;9.77;;;;;;;3.71;100.00;99810.25;5030461;28;20188;-56
2021/12/14 01:05:25;;;;;;;15.87;9.90;;;;;;;3.71;100.00;99805.06;5030227;28;20195;-55
2021/12/14 01:07:53;;;;;;;17.57;9.97;;;;;;;3.69;100.00;99812.91;5031489;28;20245;-55
2021/12/14 01:10:25;;;;;;;21.00;10.13;;;;;;;3.68;100.00;99813.81;5040140;28;20194;-54
2021/12/14 01:12:56;;;;;;;20.63;12.53;;;;;;;3.71;100.00;99814.59;5051363;28;20237;-56
2021/12/14 01:15:31;;;;;;;23.47;14.00;;;;;;;3.74;100.00;99811.84;5051390;28;20187;-55
2021/12/14 01:18:14;;;;;;;22.70;13.47;;;;;;;3.72;100.00;99805.94;5050091;28;20197;-55
2021/12/14 01:20:45;;;;;;;21.47;13.30;;;;;;;3.73;100.00;99816.16;5049496;28;20237;-53
2021/12/14 01:23:18;;;;;;;21.60;13.83;;;;;;;3.74;100.00;99814.44;5051077;28;20207;-56
2021/12/14 01:25:51;;;;;;;23.37;13.97;;;;;;;3.75;100.00;99809.19;5051278;28;20179;-55
2021/12/14 01:28:22;;;;;;;23.23;13.57;;;;;;;3.76;100.00;99813.44;5049814;28;20254;-56
2021/12/14 01:31:00;;;;;;;21.30;13.13;;;;;;;3.77;100.00;99804.75;5044367;28;20235;-56
2021/12/14 01:33:28;;;;;;;28.17;14.67;;;;;;;3.79;100.00;99805.53;5048878;28;20282;-56
2021/12/14 01:35:59;;;;;;;26.07;14.73;;;;;;;3.79;100.00;99795.19;5044467;28;20216;-55
2021/12/14 01:38:44;;;;;;;24.13;14.63;;;;;;;3.80;100.00;99801.22;5029958;28;20188;-55
2021/12/14 01:41:15;;;;;;;24.80;14.20;;;;;;;3.78;100.00;99795.28;5029387;28;20229;-56
2021/12/14 01:43:48;;;;;;;28.17;17.80;;;;;;;3.80;100.00;99791.69;5028918;28;20437;-54
2021/12/14 01:46:28;;;;;;;27.87;16.03;;;;;;;3.82;100.00;99794.22;5051416;28;20281;-54
2021/12/14 01:49:07;;;;;;;25.57;15.47;;;;;;;3.89;100.00;99803.31;5052007;28;20222;-56
2021/12/14 01:52:00;;;;;;;31.50;16.90;;;;;;;3.97;100.00;99806.34;5053791;28;20207;-54
2021/12/14 01:54:35;;;;;;;32.23;15.90;;;;;;;3.90;100.00;99806.72;5052848;28;20187;-55
2021/12/14 01:57:03;;;;;;;31.17;16.57;;;;;;;3.87;100.00;99805.16;5052877;28;20189;-56
2021/12/14 01:59:35;;;;;;;29.10;15.77;;;;;;;3.87;100.00;99807.72;5051365;28;20214;-55
2021/12/14 02:02:18;;;;;;;30.90;16.93;;;;;;;3.87;100.00;99810.31;5052559;28;20208;-56
2021/12/14 02:04:47;;;;;;;27.60;16.10;;;;;;;3.87;100.00;99807.72;5052848;28;20193;-56
2021/12/14 02:07:18;;;;;;;23.37;14.93;;;;;;;3.89;100.00;99810.22;5054274;28;20969;-54
2021/12/14 02:09:49;;;;;;;25.47;14.17;;;;;;;3.90;100.00;99801.56;5053741;28;20211;-54
2021/12/14 02:12:19;;;;;;;22.70;13.83;;;;;;;3.89;100.00;99798.16;5053600;28;20238;-56
2021/12/14 02:14:48;;;;;;;22.37;12.90;;;;;;;3.86;100.00;99792.28;5052185;28;20206;-55
2021/12/14 02:17:20;;;;;;;26.17;13.43;;;;;;;3.83;100.00;99790.72;5051792;28;20626;-55
2021/12/14 02:19:48;;;;;;;21.53;13.20;;;;;;;3.84;100.00;99789.81;5049117;28;20242;-56
2021/12/14 02:22:17;;;;;;;24.07;14.20;;;;;;;3.86;100.00;99780.22;5051294;28;20301;-55
2021/12/14 02:24:47;;;;;;;26.50;14.97;;;;;;;3.88;100.00;99781.00;5052975;28;20203;-55
2021/12/14 02:27:14;;;;;;;32.13;15.63;;;;;;;3.88;100.00;99780.13;5052197;28;20606;-55
2021/12/14 02:29:44;;;;;;;28.57;15.50;;;;;;;3.94;100.00;99769.50;5048957;28;20191;-53
2021/12/14 02:32:15;;;;;;;29.30;15.67;;;;;;;3.92;100.00;99772.16;5051582;28;20221;-52
2021/12/14 02:34:47;;;;;;;29.20;14.67;;;;;;;3.95;100.00;99777.16;5051726;28;20210;-55
2021/12/14 02:37:17;;;;;;;29.93;16.23;;;;;;;3.93;100.00;99778.16;5051452;28;20198;-56
2021/12/14 02:40:00;;;;;;;37.67;18.30;;;;;;;3.93;100.00;99781.59;5051233;28;20605;-57
2021/12/14 02:42:31;;;;;;;42.17;19.07;;;;;;;3.93;100.00;99786.75;5051111;28;20277;-55
2021/12/14 02:45:00;;;;;;;39.23;19.13;;;;;;;3.91;100.00;99791.16;5051782;28;20191;-52
2021/12/14 02:47:28;;;;;;;39.10;18.00;;;;;;;3.90;100.00;99788.63;5051757;28;20199;-53
2021/12/14 02:49:56;;;;;;;31.87;16.63;;;;;;;3.90;100.00;99788.63;5052394;28;20188;-56
2021/12/14 02:52:32;;;;;;;33.53;16.20;;;;;;;3.90;100.00;99791.22;5051588;28;20219;-55
2021/12/14 02:55:04;;;;;;;36.50;17.77;;;;;;;3.91;100.00;99788.56;5051396;28;20259;-55
2021/12/14 02:57:37;;;;;;;34.33;16.47;;;;;;;3.86;100.00;99782.81;5051318;28;20201;-52
2021/12/14 03:00:09;;;;;;;30.90;16.50;;;;;;;3.89;100.00;99793.00;5051433;28;20257;-54
2021/12/14 03:02:36;;;;;;;28.80;13.47;;;;;;;3.90;100.00;99788.63;5051535;28;20210;-54
2021/12/14 03:05:07;;;;;;;19.43;9.37;;;;;;;3.90;100.00;99794.66;5051516;28;20226;-54
2021/12/14 03:07:40;;;;;;;17.50;8.23;;;;;;;3.92;100.00;99798.00;5049268;28;20191;-52
2021/12/14 03:10:21;;;;;;;14.97;8.17;;;;;;;3.90;100.00;99805.00;5048967;28;20234;-54
2021/12/14 03:12:51;;;;;;;14.90;7.90;;;;;;;3.92;100.00;99804.91;5045089;28;20198;-53
2021/12/14 03:15:21;;;;;;;15.23;8.07;;;;;;;3.91;100.00;99816.16;5051906;28;20203;-55
2021/12/14 03:17:50;;;;;;;14.23;7.43;;;;;;;3.92;100.00;99826.41;5050741;28;20317;-55
2021/12/14 03:20:20;;;;;;;13.43;6.80;;;;;;;3.91;100.00;99824.75;5051329;28;20210;-57
2021/12/14 03:22:52;;;;;;;13.83;7.03;;;;;;;3.90;100.00;99829.97;5051289;28;20301;-55
2021/12/14 03:25:22;;;;;;;14.43;7.03;;;;;;;3.90;100.00;99840.31;5052412;28;20194;-52
2021/12/14 03:27:50;;;;;;;14.33;6.47;;;;;;;3.89;100.00;99854.97;5051075;28;20195;-55
2021/12/14 03:30:30;;;;;;;11.80;6.20;;;;;;;3.90;100.00;99850.63;5051124;28;20187;-55
2021/12/14 03:33:00;;;;;;;16.63;6.00;;;;;;;3.88;100.00;99855.03;5050888;28;20285;-55
2021/12/14 03:35:42;;;;;;;10.83;5.93;;;;;;;3.89;100.00;99849.81;5051089;28;20209;-55
2021/12/14 03:38:15;;;;;;;12.40;5.77;;;;;;;3.87;100.00;99846.47;5050568;28;20214;-54
2021/12/14 03:40:44;;;;;;;11.00;5.03;;;;;;;3.80;100.00;99845.94;5049783;28;20219;-54
2021/12/14 03:43:13;;;;;;;9.20;4.30;;;;;;;3.72;100.00;99842.06;5050674;28;20202;-56
2021/12/14 03:45:41;;;;;;;10.40;4.70;;;;;;;3.65;100.00;99844.97;5050575;28;20183;-56
2021/12/14 03:48:09;;;;;;;10.67;4.40;;;;;;;3.59;100.00;99831.53;5050356;28;20252;-54
2021/12/14 03:50:40;;;;;;;7.93;4.07;;;;;;;3.52;100.00;99808.59;5050790;28;20204;-53
2021/12/14 03:53:09;;;;;;;7.00;3.80;;;;;;;3.47;100.00;99783.91;5064589;28;20187;-52
2021/12/14 03:55:43;;;;;;;7.13;3.93;;;;;;;3.44;100.00;99791.81;5048033;28;20197;-52
2021/12/14 03:58:15;;;;;;;5.77;3.50;;;;;;;3.37;100.00;99781.78;5080769;28;20283;-53
2021/12/14 04:00:47;;;;;;;6.03;3.20;;;;;;;3.30;100.00;99780.44;5049536;28;20676;-52
2021/12/14 04:03:16;;;;;;;5.63;3.17;;;;;;;3.22;100.00;99791.13;5051851;28;20195;-53
2021/12/14 04:06:10;;;;;;;4.80;2.90;;;;;;;3.07;100.00;99794.47;5049952;28;20218;-55
2021/12/14 04:08:37;;;;;;;5.33;2.33;;;;;;;2.96;100.00;99789.81;5050339;28;20199;-55
2021/12/14 04:11:08;;;;;;;4.70;2.40;;;;;;;2.89;100.00;99785.88;5063284;28;20240;-52
2021/12/14 04:13:39;;;;;;;3.70;2.80;;;;;;;2.88;100.00;99786.78;5070178;28;20201;-55
2021/12/14 04:16:12;;;;;;;5.73;3.03;;;;;;;2.84;100.00;99785.25;5069950;28;20194;-55
2021/12/14 04:18:40;;;;;;;5.10;2.60;;;;;;;2.90;100.00;99782.38;5070013;28;20191;-55
2021/12/14 04:21:07;;;;;;;5.03;3.20;;;;;;;2.96;100.00;99782.09;5069330;28;20301;-55
2021/12/14 04:23:38;;;;;;;5.97;3.43;;;;;;;2.99;100.00;99778.50;5070742;28;20240;-52
2021/12/14 04:26:09;;;;;;;16.00;7.93;;;;;;;3.03;100.00;99778.31;5070735;28;20190;-52
2021/12/14 04:28:41;;;;;;;27.70;9.37;;;;;;;3.13;100.00;99777.88;5070511;28;20285;-52
2021/12/14 04:31:10;;;;;;;104.40;13.53;;;;;;;3.21;100.00;99778.28;5063368;28;20679;-55
2021/12/14 04:33:40;;;;;;;69.67;10.93;;;;;;;3.31;100.00;99770.94;5050017;28;20189;-53
2021/12/14 04:36:12;;;;;;;29.10;9.90;;;;;;;3.31;100.00;99782.09;5050300;28;20197;-53
2021/12/14 04:38:48;;;;;;;26.73;8.70;;;;;;;3.31;100.00;99782.09;5050432;28;20187;-54
2021/12/14 04:52:27;;;;;;;54.90;11.50;;;;;;;3.38;100.00;99788.63;5047441;28;20236;-55
2021/12/14 04:54:56;;;;;;;59.50;12.00;;;;;;;3.40;100.00;99773.06;5050356;28;20195;-52
2021/12/14 04:57:31;;;;;;;92.47;12.27;;;;;;;3.38;100.00;99775.72;5049868;28;20187;-54
2021/12/14 05:00:14;;;;;;;23.63;10.50;;;;;;;3.39;100.00;99784.31;5049282;28;20226;-55
2021/12/14 05:02:46;;;;;;;62.73;11.20;;;;;;;3.36;100.00;99785.28;5050358;28;20191;-51
2021/12/14 05:05:20;;;;;;;132.57;13.20;;;;;;;3.36;100.00;99769.78;5050243;28;20664;-55
2021/12/14 05:09:19;;;;;;;43.57;12.43;;;;;;;3.39;100.00;99766.25;5049615;28;20210;-56
2021/12/14 05:10:40;;;;;;;124.53;13.33;;;;;;;3.36;100.00;99763.81;5059803;28;20312;-54
2021/12/14 05:13:09;;;;;;;38.07;8.97;;;;;;;3.32;100.00;99757.13;5070220;28;20191;-54
2021/12/14 05:15:39;;;;;;;36.93;8.83;;;;;;;3.33;100.00;99743.31;5058859;28;20193;-52
2021/12/14 05:18:11;;;;;;;28.93;8.27;;;;;;;3.24;100.00;99744.59;5049468;28;20329;-55
2021/12/14 05:20:42;;;;;;;27.67;8.97;;;;;;;3.15;100.00;99735.59;5048974;28;20230;-53
2021/12/14 05:23:10;;;;;;;20.23;8.00;;;;;;;3.09;100.00;99734.16;5052906;28;20237;-52
2021/12/14 05:25:38;;;;;;;17.73;8.20;;;;;;;3.03;100.00;99733.59;5054010;28;20764;-55
2021/12/14 05:28:14;;;;;;;15.87;7.67;;;;;;;3.00;100.00;99729.44;5053899;28;20559;-54
2021/12/14 05:30:47;;;;;;;21.37;7.27;;;;;;;3.03;100.00;99746.50;5053182;28;20734;-53
2021/12/14 05:33:24;;;;;;;16.37;6.87;;;;;;;3.05;100.00;99737.78;5053178;28;20925;-55
2021/12/14 05:35:54;;;;;;;18.17;7.80;;;;;;;3.07;100.00;99746.28;5050372;28;20192;-55
2021/12/14 05:38:40;;;;;;;20.27;7.50;;;;;;;3.10;100.00;99743.56;5085040;28;20197;-53
2021/12/14 05:44:04;;;;;;;23.37;8.70;;;;;;;3.14;100.00;99751.97;5053371;28;20194;-52
2021/12/14 05:46:53;;;;;;;74.47;10.43;;;;;;;3.10;100.00;99740.97;5053840;28;20202;-52
2021/12/14 05:49:30;;;;;;;26.47;9.67;;;;;;;3.17;100.00;99731.19;5053556;28;20620;-55
2021/12/14 05:52:01;;;;;;;36.10;9.30;;;;;;;3.18;100.00;99729.44;5053963;28;20197;-52
2021/12/14 05:54:33;;;;;;;24.53;8.30;;;;;;;3.20;100.00;99728.44;5051650;28;20642;-51
2021/12/14 05:57:05;;;;;;;25.83;10.33;;;;;;;3.23;100.00;99736.03;5053511;28;20195;-56
2021/12/14 05:59:35;;;;;;;68.23;9.90;;;;;;;3.28;100.00;99734.97;5052632;28;20195;-57
2021/12/14 06:02:07;;;;;;;23.33;12.27;;;;;;;3.19;100.00;99729.34;5053204;28;20230;-54
2021/12/14 06:04:37;;;;;;;24.07;8.00;;;;;;;3.16;100.00;99720.94;5053008;28;20599;-55
2021/12/14 06:07:05;;;;;;;20.20;8.20;;;;;;;3.16;100.00;99720.94;5053793;28;20191;-54
2021/12/14 06:09:37;;;;;;;17.40;7.90;;;;;;;3.22;100.00;99726.63;5053564;28;20187;-52
2021/12/14 06:12:14;;;;;;;13.20;6.17;;;;;;;3.21;100.00;99748.19;5072385;28;20215;-53
2021/12/14 06:14:51;;;;;;;54.30;7.87;;;;;;;3.07;100.00;99746.28;5069021;28;20610;-52
2021/12/14 06:17:23;;;;;;;19.73;7.03;;;;;;;3.09;100.00;99725.56;5052371;28;20588;-54
2021/12/14 06:19:53;;;;;;;14.87;6.67;;;;;;;3.08;100.00;99723.91;5049935;28;20203;-51
2021/12/14 06:22:24;;;;;;;46.03;7.77;;;;;;;3.08;100.00;99736.78;5052216;28;20223;-54
2021/12/14 06:24:54;;;;;;;34.20;7.57;;;;;;;3.09;100.00;99739.31;5052747;28;20192;-57
2021/12/14 06:27:26;;;;;;;18.57;7.53;;;;;;;3.16;100.00;99752.72;5052623;28;20195;-52
2021/12/14 06:29:58;;;;;;;29.03;7.80;;;;;;;3.18;100.00;99748.34;5052504;28;20195;-54
2021/12/14 06:32:28;;;;;;;243.77;16.13;;;;;;;3.18;100.00;99755.25;5052832;28;20257;-57
2021/12/14 06:35:00;;;;;;;331.67;18.00;;;;;;;3.11;100.00;99741.81;5051850;28;20281;-57
2021/12/14 06:40:39;;;;;;;82.13;9.50;;;;;;;3.00;100.00;99750.06;5036689;28;20214;-57
2021/12/14 06:43:09;;;;;;;200.13;13.43;;;;;;;2.82;100.00;99758.69;5052708;28;20816;-56
2021/12/14 06:45:40;;;;;;;187.27;10.87;;;;;;;2.71;100.00;99748.88;5052661;28;20672;-55
2021/12/14 06:48:10;;;;;;;386.07;17.43;;;;;;;2.58;100.00;99749.47;5052174;28;20199;-54
2021/12/14 06:50:42;;;;;;;646.50;27.07;;;;;;;2.49;100.00;99750.72;5051720;28;20226;-56
2021/12/14 06:53:17;;;;;;;170.23;11.60;;;;;;;2.56;100.00;99740.13;5052434;28;20202;-57
2021/12/14 06:56:07;;;;;;;372.93;16.80;;;;;;;2.49;100.00;99730.09;5053738;28;20198;-55
2021/12/14 06:59:06;;;;;;;306.07;14.53;;;;;;;2.49;100.00;99724.97;5053672;28;20732;-55
2021/12/14 07:01:52;;;;;;;596.97;27.33;;;;;;;2.42;100.00;99725.31;5050747;28;20238;-57
2021/12/14 07:04:23;;;;;;;76.43;8.70;;;;;;;2.48;100.00;99733.59;5051836;28;20193;-57
2021/12/14 07:06:54;;;;;;;99.93;11.00;;;;;;;2.57;100.00;99741.81;5051546;28;20214;-56
2021/12/14 07:09:22;;;;;;;295.00;14.23;;;;;;;2.56;100.00;99729.81;5045810;28;20561;-58
2021/12/14 07:11:57;;;;;;;307.47;14.93;;;;;;;2.57;100.00;99736.66;5051101;28;20291;-56
2021/12/14 07:14:38;;;;;;;199.77;11.17;;;;;;;2.61;100.00;99736.44;5033326;28;20735;-56
2021/12/14 07:17:15;;;;;;;346.83;16.87;;;;;;;2.56;100.00;99727.25;5033194;28;20310;-54
2021/12/14 07:19:47;;;;;;;219.63;19.00;;;;;;;2.57;100.00;99727.19;5032504;28;20286;-57
2021/12/14 07:22:38;;;;;;;44.80;7.60;;;;;;;2.69;100.00;99746.38;5032246;28;20220;-54
2021/12/14 07:25:07;;;;;;;123.73;10.03;;;;;;;2.68;100.00;99751.59;5033019;28;20364;-57
2021/12/14 07:27:37;;;;;;;130.87;10.13;;;;;;;2.69;100.00;99748.13;5032951;28;20190;-54
2021/12/14 07:30:13;;;;;;;54.43;7.77;;;;;;;2.72;100.00;99740.22;5031760;28;20279;-57
2021/12/14 07:32:46;;;;;;;217.70;11.87;;;;;;;2.73;100.00;99747.91;5032988;28;20245;-56
2021/12/14 07:35:15;;;;;;;169.60;31.57;;;;;;;2.71;100.00;99742.00;5032732;28;20682;-57
2021/12/14 07:37:42;;;;;;;194.07;13.10;;;;;;;2.73;100.00;99750.50;5032919;28;20183;-57
2021/12/14 07:40:10;;;;;;;53.13;8.23;;;;;;;2.79;100.00;99755.34;5036474;28;20703;-53
2021/12/14 07:42:37;;;;;;;43.57;8.97;;;;;;;2.81;100.00;99763.00;5052137;28;20291;-57
2021/12/14 07:45:07;;;;;;;147.80;12.83;;;;;;;2.78;100.00;99770.88;5050974;28;20587;-54
2021/12/14 07:47:35;;;;;;;284.45;59.17;;;;;;;2.73;100.00;99784.00;5051438;28;20432;-58
2021/12/14 07:50:06;;;;;;;128.93;22.23;;;;;;;2.66;100.00;99786.03;5051689;28;20188;-58
2021/12/14 07:52:35;;;;;;;134.57;14.60;;;;;;;2.70;100.00;99804.78;5052497;28;20203;-57
2021/12/14 07:55:09;;;;;;;129.43;17.13;;;;;;;2.58;100.00;99828.53;5051176;28;20241;-55
2021/12/14 07:57:39;;;;;;;77.57;10.53;;;;;;;2.56;100.00;99836.34;5048615;28;20218;-55
2021/12/14 08:00:10;;;;;;;148.60;16.57;;;;;;;2.50;100.00;99854.69;5051321;28;20270;-57
2021/12/14 08:02:42;;;;;;;79.97;20.40;;;;;;;2.59;100.00;99853.41;5032818;28;20222;-57
2021/12/14 08:05:17;;;;;;;87.83;10.53;;;;;;;2.61;100.00;99846.44;5044620;28;20241;-58
2021/12/14 08:07:49;;;;;;;52.57;9.40;;;;;;;2.61;100.00;99833.56;5051489;28;20191;-54
2021/12/14 08:10:21;;;;;;;94.20;10.20;;;;;;;2.68;100.00;99819.47;5057232;28;20219;-57
2021/12/14 08:12:52;;;;;;;32.07;14.10;;;;;;;2.71;100.00;99829.66;5056401;28;20191;-57
2021/12/14 08:15:23;;;;;;;26.50;8.77;;;;;;;2.83;100.00;99833.41;5051450;28;20226;-57
2021/12/14 08:18:04;;;;;;;26.27;9.67;;;;;;;2.88;100.00;99817.72;5052128;28;20183;-55
2021/12/14 08:20:35;;;;;;;25.13;8.77;;;;;;;3.02;100.00;99820.50;5051158;28;20199;-55
2021/12/14 08:23:17;;;;;;;55.07;10.53;;;;;;;3.01;100.00;99808.50;5051559;28;20203;-56
2021/12/14 08:25:44;;;;;;;28.27;10.00;;;;;;;3.19;100.00;99790.44;5052047;28;20656;-55
2021/12/14 08:28:12;;;;;;;17.83;8.63;;;;;;;3.32;100.00;99799.25;5051279;28;20266;-58
2021/12/14 08:30:43;;;;;;;19.60;8.20;;;;;;;3.40;100.00;99793.72;5048825;28;20312;-56
2021/12/14 08:33:20;;;;;;;15.17;7.67;;;;;;;3.49;100.00;99785.53;5048499;28;20193;-55
2021/12/14 08:35:49;;;;;;;22.67;13.70;;;;;;;3.57;100.00;99776.56;5050018;28;20570;-56
2021/12/14 08:38:18;;;;;;;14.90;8.20;;;;;;;3.71;100.00;99799.91;5050079;28;20683;-57
2021/12/14 08:40:50;;;;;;;32.17;12.77;;;;;;;3.69;100.00;99817.25;5049116;28;20652;-57
2021/12/14 08:43:25;;;;;;;30.37;16.27;;;;;;;3.46;100.00;99792.56;5048100;28;20215;-57
2021/12/14 08:45:58;;;;;;;64.77;11.73;;;;;;;3.44;100.00;99782.34;5047798;28;20221;-57
2021/12/14 08:48:30;;;;;;;32.93;10.93;;;;;;;3.50;100.00;99794.94;5049242;28;20198;-58
2021/12/14 08:51:02;;;;;;;29.53;8.10;;;;;;;3.38;100.00;99804.09;5046220;28;20230;-56
2021/12/14 08:53:35;;;;;;;30.33;8.83;;;;;;;3.27;100.00;99796.06;5049986;28;20179;-56
2021/12/14 08:56:08;;;;;;;37.00;9.07;;;;;;;3.22;100.00;99800.59;5050335;28;20190;-59
2021/12/14 08:58:42;;;;;;;23.10;9.13;;;;;;;3.34;100.00;99819.84;5049848;28;20223;-55
2021/12/14 09:01:14;;;;;;;30.00;11.53;;;;;;;3.32;100.00;99814.72;5049845;28;20222;-58
2021/12/14 09:03:46;;;;;;;24.20;9.23;;;;;;;3.30;100.00;99802.84;5044827;28;20188;-56
2021/12/14 09:06:17;;;;;;;40.87;10.47;;;;;;;3.31;100.00;99805.31;5051914;28;20224;-55
2021/12/14 09:08:46;;;;;;;52.27;11.20;;;;;;;3.43;100.00;99823.69;5051098;28;20187;-57
2021/12/14 09:11:16;;;;;;;39.60;10.87;;;;;;;3.33;100.00;99821.56;5065163;28;20652;-57
2021/12/14 09:13:44;;;;;;;34.85;13.60;;;;;;;3.46;100.00;99823.56;5070563;28;20457;-57
2021/12/14 09:16:15;;;;;;;25.27;11.10;;;;;;;3.62;100.00;99821.06;5048634;28;20190;-54
2021/12/14 09:18:49;;;;;;;27.83;9.17;;;;;;;3.73;100.00;99829.06;5042567;28;20196;-56
2021/12/14 09:21:24;;;;;;;35.30;9.67;;;;;;;3.65;100.00;99829.47;5047492;28;20257;-55
2021/12/14 09:23:59;;;;;;;29.03;9.67;;;;;;;3.74;100.00;99835.09;5032231;28;20199;-56
2021/12/14 09:26:34;;;;;;;43.10;10.07;;;;;;;3.71;100.00;99825.72;5031789;28;20207;-57
2021/12/14 09:29:12;;;;;;;21.87;8.73;;;;;;;3.83;100.00;99832.03;5030829;28;20192;-57
2021/12/14 09:31:44;;;;;;;31.23;10.10;;;;;;;3.92;100.00;99836.75;5031399;28;20215;-57
2021/12/14 09:34:21;;;;;;;44.33;10.30;;;;;;;3.94;100.00;99831.50;5031950;28;20461;-57
2021/12/14 09:36:51;;;;;;;25.40;10.27;;;;;;;3.92;100.00;99836.75;5031624;28;20196;-57
2021/12/14 09:39:22;;;;;;;28.63;11.03;;;;;;;4.03;100.00;99840.53;5031316;28;20184;-57
2021/12/14 09:41:53;;;;;;;34.03;9.47;;;;;;;3.95;100.00;99839.19;5047753;28;20302;-57
2021/12/14 09:44:26;;;;;;;15.63;8.17;;;;;;;4.04;100.00;99843.03;5046407;28;20188;-56
2021/12/14 09:46:57;;;;;;;22.13;7.83;;;;;;;4.04;100.00;99839.63;5043879;28;20607;-58
2021/12/14 09:49:26;;;;;;;18.90;8.53;;;;;;;4.11;100.00;99846.97;5032624;28;20748;-57
2021/12/14 09:51:57;;;;;;;27.50;10.60;;;;;;;4.09;100.00;99846.19;5030955;28;20279;-54
2021/12/14 09:54:27;;;;;;;55.07;18.43;;;;;;;3.99;100.00;99851.03;5031215;28;20278;-57
2021/12/14 09:56:57;;;;;;;49.70;25.90;;;;;;;3.97;100.00;99845.09;5040507;28;20191;-56
2021/12/14 09:59:25;;;;;;;43.13;13.17;;;;;;;4.06;100.00;99853.28;5050327;28;20617;-57
2021/12/14 10:01:56;;;;;;;25.63;13.30;;;;;;;4.10;100.00;99860.78;5050451;28;20242;-58
2021/12/14 10:04:26;;;;;;;29.20;12.77;;;;;;;4.12;100.00;99850.41;5051171;28;20625;-57
2021/12/14 10:06:55;;;;;;;37.83;12.00;;;;;;;4.09;100.00;99847.97;5051198;28;20671;-57
2021/12/14 10:09:26;;;;;;;22.23;10.60;;;;;;;4.17;100.00;99843.25;5052817;28;20245;-57
2021/12/14 10:12:14;;;;;;;35.10;11.77;;;;;;;4.31;100.00;99839.06;5053804;28;20420;-57
2021/12/14 10:14:41;;;;;;;34.30;10.07;;;;;;;4.31;100.00;99841.66;5054587;28;20219;-57
2021/12/14 10:17:12;;;;;;;78.10;28.37;;;;;;;4.33;100.00;99845.00;5054872;28;20672;-58
2021/12/14 10:19:41;;;;;;;26.33;13.20;;;;;;;4.31;100.00;99846.81;5054232;28;20188;-58
2021/12/14 10:22:13;;;;;;;39.73;10.37;;;;;;;4.16;100.00;99849.31;5054354;28;20232;-57
2021/12/14 10:24:40;;;;;;;48.93;11.83;;;;;;;4.01;100.00;99843.19;5054198;28;20202;-56
2021/12/14 10:27:10;;;;;;;27.50;11.00;;;;;;;4.21;100.00;99849.06;5054323;28;20612;-57
2021/12/14 10:29:37;;;;;;;38.53;12.37;;;;;;;4.11;100.00;99848.72;5054008;28;20619;-57
2021/12/14 10:32:08;;;;;;;37.47;12.27;;;;;;;4.21;100.00;99849.91;5054495;28;20274;-58
2021/12/14 10:34:40;;;;;;;106.80;17.03;;;;;;;4.08;100.00;99843.72;5054655;28;20274;-58
2021/12/14 10:37:17;;;;;;;130.73;15.53;;;;;;;4.16;100.00;99844.16;5048364;28;20576;-56
2021/12/14 10:45:22;;;;;;;41.27;14.10;;;;;;;4.72;100.00;99846.38;5050789;28;20192;-56
2021/12/14 10:47:53;;;;;;;62.97;14.97;;;;;;;4.77;98.99;99830.63;5052760;28;20199;-56
2021/12/14 10:50:23;;;;;;;38.43;15.07;;;;;;;4.54;98.96;99836.09;5053564;28;20201;-57
2021/12/14 10:52:51;;;;;;;29.97;14.50;;;;;;;4.65;99.22;99832.13;5053935;28;20186;-58
2021/12/14 10:55:20;;;;;;;37.70;14.13;;;;;;;4.62;99.82;99829.69;5053793;28;20192;-57
2021/12/14 10:57:48;;;;;;;30.17;13.80;;;;;;;4.82;99.83;99829.44;5051926;28;20227;-57
2021/12/14 11:00:19;;;;;;;38.50;20.20;;;;;;;4.78;97.73;99830.53;5049275;28;20192;-57
2021/12/14 11:02:46;;;;;;;33.07;15.70;;;;;;;4.81;97.99;99827.78;5050292;28;20217;-56
2021/12/14 11:05:18;;;;;;;36.40;14.40;;;;;;;4.70;97.27;99814.59;5051494;28;20215;-57
2021/12/14 11:07:49;;;;;;;28.67;15.83;;;;;;;4.76;98.66;99821.19;5051458;28;20179;-56
2021/12/14 11:10:24;;;;;;;39.50;19.70;;;;;;;4.79;98.68;99814.09;5051604;28;20274;-57
2021/12/14 11:12:57;;;;;;;41.93;15.50;;;;;;;4.88;98.69;99818.75;5050378;28;20628;-56
2021/12/14 11:15:28;;;;;;;28.23;14.00;;;;;;;5.07;99.26;99814.31;5060199;28;20228;-56
2021/12/14 11:18:12;;;;;;;67.90;13.60;;;;;;;5.13;97.92;99795.84;5052524;28;20187;-53
2021/12/14 11:20:48;;;;;;;52.10;13.43;;;;;;;5.20;97.53;99796.34;5051734;28;20265;-53
2021/12/14 11:23:19;;;;;;;23.73;13.37;;;;;;;5.30;98.34;99787.94;5051458;28;20289;-56
2021/12/14 11:25:58;;;;;;;23.77;13.13;;;;;;;5.43;98.85;99782.88;5051828;28;20183;-56
2021/12/14 11:28:30;;;;;;;23.33;12.87;;;;;;;5.65;95.59;99784.22;5049624;28;20216;-58
2021/12/14 11:31:04;;;;;;;25.97;14.33;;;;;;;5.75;93.52;99787.13;5050231;28;20218;-55
2021/12/14 11:33:34;;;;;;;26.53;12.97;;;;;;;5.75;93.28;99793.13;5051803;28;20193;-57
2021/12/14 11:36:12;;;;;;;24.20;12.23;;;;;;;5.83;93.33;99799.59;5051897;28;20612;-56
2021/12/14 11:38:42;;;;;;;27.67;13.57;;;;;;;5.88;92.73;99808.75;5050841;28;20201;-56
2021/12/14 11:41:28;;;;;;;29.63;14.20;;;;;;;5.68;93.03;99809.94;5051612;28;20214;-56
2021/12/14 11:43:58;;;;;;;38.80;12.20;;;;;;;5.33;93.37;99825.75;5048505;28;20209;-57
2021/12/14 11:46:27;;;;;;;29.30;14.83;;;;;;;5.22;95.78;99831.56;5052342;28;20658;-57
2021/12/14 11:48:58;;;;;;;33.50;16.07;;;;;;;5.12;95.89;99830.41;5051807;28;20196;-57
2021/12/14 11:51:26;;;;;;;32.87;15.67;;;;;;;4.87;96.32;99826.59;5049810;28;20252;-53
2021/12/14 11:53:55;;;;;;;30.07;16.13;;;;;;;4.70;97.50;99837.88;5048742;28;20721;-58
2021/12/14 11:56:25;;;;;;;29.20;15.97;;;;;;;4.60;98.14;99840.13;5049054;28;20222;-55
2021/12/14 11:58:56;;;;;;;28.60;15.57;;;;;;;4.56;99.71;99851.56;5051315;28;20197;-56
2021/12/14 12:01:27;;;;;;;35.20;17.10;;;;;;;4.51;99.90;99848.38;5048914;28;20207;-57
2021/12/14 12:03:59;;;;;;;27.67;16.03;;;;;;;4.77;100.00;99852.13;5051488;28;20306;-53
2021/12/14 12:09:28;;;;;;;35.47;17.03;;;;;;;4.77;100.00;99851.31;5050427;28;20187;-57
2021/12/14 12:09:35;;;;;;;33.57;17.23;;;;;;;4.73;100.00;99854.06;5048920;28;20248;-58